createdAt,value
2022-11-14T00:04:19.332Z,-0.40
2022-11-14T00:09:26.663Z,-0.50
2022-11-14T00:14:29.903Z,-0.50
2022-11-14T00:19:33.280Z,-0.50
2022-11-14T00:24:37.992Z,-0.50
2022-11-14T00:29:44.880Z,-0.40
2022-11-14T00:34:48.043Z,-0.50
2022-11-14T00:39:52.689Z,-0.50
2022-11-14T00:44:56.026Z,-0.60
2022-11-14T00:49:59.263Z,-0.60
2022-11-14T00:55:03.909Z,-0.70
2022-11-14T01:00:09.439Z,-0.70
2022-11-14T01:05:12.664Z,-0.70
2022-11-14T01:10:17.565Z,-0.80
2022-11-14T01:15:20.768Z,-0.70
2022-11-14T01:20:24.218Z,-0.70
2022-11-14T01:25:30.813Z,-0.70
2022-11-14T01:30:34.000Z,-0.80
2022-11-14T01:35:38.705Z,-0.80
2022-11-14T01:47:06.703Z,-0.80
2022-11-14T01:52:17.814Z,-0.80
2022-11-14T01:57:26.616Z,-0.80
2022-11-14T02:02:31.572Z,-0.80
2022-11-14T02:07:37.848Z,-0.80
2022-11-14T02:12:41.073Z,-0.90
2022-11-14T02:17:46.053Z,-0.80
2022-11-14T02:22:50.776Z,-0.80
2022-11-14T02:27:54.642Z,-0.80
2022-11-14T02:33:10.388Z,-0.80
2022-11-14T02:38:15.874Z,-0.80
2022-11-14T02:43:19.042Z,-0.80
2022-11-14T02:48:22.364Z,-0.90
2022-11-14T02:53:27.107Z,-1.00
2022-11-14T02:58:30.559Z,-1.10
2022-11-14T03:03:34.703Z,-1.10
2022-11-14T03:08:39.321Z,-1.10
2022-11-14T03:13:42.627Z,-1.00
2022-11-14T03:18:45.771Z,-0.90
2022-11-14T03:23:50.520Z,-0.90
2022-11-14T03:28:55.319Z,-0.90
2022-11-14T03:33:58.674Z,-0.90
2022-11-14T03:39:03.984Z,-0.90
2022-11-14T03:44:07.264Z,-0.90
2022-11-14T03:49:10.526Z,-0.90
2022-11-14T03:54:15.232Z,-0.80
2022-11-14T03:59:18.512Z,-0.70
2022-11-14T04:04:21.823Z,-0.60
2022-11-14T04:09:26.533Z,-0.50
2022-11-14T04:14:29.813Z,-0.30
2022-11-14T04:19:33.097Z,-0.20
2022-11-14T04:24:37.707Z,-0.20
2022-11-14T04:29:40.961Z,-0.20
2022-11-14T04:34:44.200Z,-0.20
2022-11-14T04:39:48.715Z,-0.20
2022-11-14T04:44:51.841Z,-0.20
2022-11-14T04:49:55.124Z,-0.20
2022-11-14T04:54:59.724Z,-0.20
2022-11-14T05:00:02.975Z,-0.20
2022-11-14T05:05:06.723Z,-0.20
2022-11-14T05:10:12.098Z,-0.20
2022-11-14T05:15:15.403Z,-0.30
2022-11-14T05:20:18.792Z,-0.30
2022-11-14T05:25:23.446Z,-0.30
2022-11-14T05:30:26.647Z,-0.40
2022-11-14T05:35:29.796Z,-0.30
2022-11-14T05:40:34.297Z,-0.20
2022-11-14T05:45:37.563Z,-0.10
2022-11-14T05:50:40.831Z,0.00
2022-11-14T05:55:45.472Z,0.10
2022-11-14T06:00:53.622Z,0.20
2022-11-14T06:05:57.320Z,0.30
2022-11-14T06:11:05.710Z,0.30
2022-11-14T06:16:11.480Z,0.40
2022-11-14T06:21:16.300Z,0.40
2022-11-14T06:26:23.902Z,0.50
2022-11-14T06:31:27.626Z,0.60
2022-11-14T06:36:31.344Z,0.60
2022-11-14T06:41:35.988Z,0.60
2022-11-14T06:46:39.180Z,0.60
2022-11-14T06:51:42.366Z,0.60
2022-11-14T06:56:47.146Z,0.70
2022-11-14T07:01:50.272Z,0.80
2022-11-14T07:06:53.587Z,0.90
2022-11-14T07:11:58.123Z,1.00
2022-11-14T07:17:01.536Z,1.20
2022-11-14T07:22:04.888Z,1.40
2022-11-14T07:27:12.198Z,1.60
2022-11-14T07:32:15.662Z,1.60
2022-11-14T07:37:18.879Z,1.90
2022-11-14T07:42:23.485Z,2.20
2022-11-14T07:47:27.819Z,2.20
2022-11-14T07:52:31.821Z,2.00
2022-11-14T07:57:41.099Z,1.90
2022-11-14T08:02:47.252Z,2.20
2022-11-14T08:07:52.032Z,4.10
2022-11-14T08:13:25.175Z,4.90
2022-11-14T08:18:25.670Z,5.30
2022-11-14T08:23:37.291Z,5.70
2022-11-14T08:28:42.032Z,6.10
2022-11-14T08:33:45.226Z,6.10
2022-11-14T08:38:51.403Z,6.50
2022-11-14T08:43:57.170Z,6.70
2022-11-14T08:49:04.694Z,6.90
2022-11-14T08:54:07.968Z,6.80
2022-11-14T08:59:14.339Z,6.90
2022-11-14T09:04:20.352Z,7.20
2022-11-14T09:09:25.178Z,7.40
2022-11-14T09:14:37.864Z,7.60
2022-11-14T09:19:42.447Z,7.50
2022-11-14T09:24:49.553Z,7.60
2022-11-14T09:29:55.952Z,7.60
2022-11-14T09:35:02.137Z,7.90
2022-11-14T09:40:25.698Z,8.20
2022-11-14T09:45:37.316Z,8.50
2022-11-14T09:50:53.568Z,8.90
2022-11-14T09:56:03.942Z,9.30
2022-11-14T10:01:14.173Z,9.70
2022-11-14T10:06:31.166Z,9.90
2022-11-14T10:11:43.056Z,10.00
2022-11-14T10:16:58.168Z,9.90
2022-11-14T10:22:13.742Z,10.20
2022-11-14T10:27:21.720Z,10.50
2022-11-14T10:32:47.754Z,10.50
2022-11-14T10:38:00.335Z,10.40
2022-11-14T10:43:16.956Z,10.10
2022-11-14T10:48:31.577Z,10.20
2022-11-14T10:53:53.174Z,10.10
2022-11-14T10:58:56.487Z,10.10
2022-11-14T11:04:14.228Z,10.30
2022-11-14T11:09:43.952Z,10.40
2022-11-14T11:14:51.385Z,10.50
2022-11-14T11:19:55.961Z,10.30
2022-11-14T11:25:01.657Z,10.20
2022-11-14T11:30:19.565Z,10.20
2022-11-14T11:35:24.581Z,10.10
2022-11-14T11:40:32.624Z,10.00
2022-11-14T11:45:36.380Z,9.90
2022-11-14T11:50:51.005Z,10.00
2022-11-14T11:56:03.633Z,10.20
2022-11-14T12:01:11.417Z,10.40
2022-11-14T12:06:24.935Z,10.90
2022-11-14T12:11:31.685Z,11.30
2022-11-14T12:17:04.959Z,11.90
2022-11-14T12:22:29.675Z,12.00
2022-11-14T12:27:52.359Z,11.90
2022-11-14T12:33:01.193Z,11.90
2022-11-14T12:38:14.338Z,11.90
2022-11-14T12:43:36.925Z,11.80
2022-11-14T12:48:42.331Z,11.80
2022-11-14T12:53:47.349Z,11.80
2022-11-14T12:59:25.988Z,11.90
2022-11-14T13:04:41.626Z,12.60
2022-11-14T13:10:04.902Z,12.80
2022-11-14T13:15:49.860Z,12.60
2022-11-14T13:21:21.395Z,12.60
2022-11-14T13:26:44.623Z,12.50
2022-11-14T13:31:50.694Z,12.20
2022-11-14T13:37:00.382Z,12.30
2022-11-14T13:42:25.900Z,12.60
2022-11-14T13:47:52.491Z,12.80
2022-11-14T13:52:58.265Z,12.90
2022-11-14T13:58:15.884Z,12.90
2022-11-14T14:03:29.246Z,12.60
2022-11-14T14:08:57.393Z,12.10
2022-11-14T14:14:17.585Z,12.00
2022-11-14T14:19:28.782Z,11.80
2022-11-14T14:24:46.714Z,11.60
2022-11-14T14:30:01.484Z,11.30
2022-11-14T14:35:23.713Z,11.40
2022-11-14T14:40:29.297Z,11.20
2022-11-14T14:45:45.863Z,11.00
2022-11-14T14:50:51.997Z,11.00
2022-11-14T14:55:58.136Z,11.10
2022-11-14T15:01:06.408Z,11.00
2022-11-14T15:06:29.868Z,10.90
2022-11-14T15:11:33.760Z,10.90
2022-11-14T15:16:38.342Z,10.80
2022-11-14T15:21:41.577Z,10.60
2022-11-14T15:26:46.315Z,10.50
2022-11-14T15:31:53.811Z,10.20
2022-11-14T15:37:24.379Z,10.00
2022-11-14T15:42:29.950Z,10.00
2022-11-14T15:47:40.139Z,9.70
2022-11-14T15:52:55.289Z,9.60
2022-11-14T15:58:26.032Z,9.60
2022-11-14T16:03:24.394Z,9.40
2022-11-14T16:08:27.956Z,9.50
2022-11-14T16:13:31.610Z,9.40
2022-11-14T16:18:36.548Z,9.40
2022-11-14T16:23:40.055Z,9.30
2022-11-14T16:28:43.467Z,9.40
2022-11-14T16:33:48.317Z,9.40
2022-11-14T16:38:52.582Z,9.40
2022-11-14T16:43:56.823Z,9.40
2022-11-14T16:49:01.569Z,9.40
2022-11-14T16:54:05.723Z,9.20
2022-11-14T16:59:10.548Z,9.00
2022-11-14T17:04:15.922Z,9.00
2022-11-14T17:09:19.285Z,9.10
2022-11-14T17:14:22.493Z,9.10
2022-11-14T17:19:27.077Z,9.00
2022-11-14T17:24:31.618Z,9.00
2022-11-14T17:29:35.130Z,9.10
2022-11-14T17:34:39.732Z,9.20
2022-11-14T17:39:42.911Z,9.30
2022-11-14T17:44:46.110Z,9.20
2022-11-14T17:49:50.662Z,9.00
2022-11-14T17:54:53.901Z,9.10
2022-11-14T17:59:57.083Z,9.00
2022-11-14T18:05:01.655Z,9.00
2022-11-14T18:10:05.394Z,9.10
2022-11-14T18:15:09.244Z,9.30
2022-11-14T18:20:13.886Z,9.40
2022-11-14T18:25:17.322Z,9.30
2022-11-14T18:30:40.292Z,9.20
2022-11-14T18:35:45.196Z,9.10
2022-11-14T18:40:52.929Z,8.90
2022-11-14T18:46:06.629Z,8.70
2022-11-14T18:51:13.983Z,8.70
2022-11-14T18:56:20.194Z,8.60
2022-11-14T19:01:29.899Z,8.40
2022-11-14T19:06:36.539Z,8.20
2022-11-14T19:11:57.514Z,7.80
2022-11-14T19:17:01.211Z,7.40
2022-11-14T19:22:05.886Z,7.00
2022-11-14T19:27:09.022Z,6.60
2022-11-14T19:32:12.312Z,6.30
2022-11-14T19:37:16.817Z,6.10
2022-11-14T19:42:20.006Z,5.90
2022-11-14T19:47:23.282Z,5.80
2022-11-14T19:52:28.059Z,5.60
2022-11-14T19:57:32.038Z,5.40
2022-11-14T20:02:38.617Z,5.30
2022-11-14T20:07:43.195Z,5.20
2022-11-14T20:12:46.495Z,5.10
2022-11-14T20:17:49.761Z,5.10
2022-11-14T20:22:54.326Z,5.00
2022-11-14T20:27:57.590Z,4.90
2022-11-14T20:33:01.883Z,4.90
2022-11-14T20:38:08.113Z,4.90
2022-11-14T20:43:11.287Z,4.80
2022-11-14T20:48:14.751Z,4.70
2022-11-14T20:53:19.533Z,4.60
2022-11-14T20:58:22.758Z,4.50
2022-11-14T21:03:26.462Z,4.50
2022-11-14T21:08:34.316Z,4.40
2022-11-14T21:13:56.108Z,4.40
2022-11-14T21:18:59.902Z,4.40
2022-11-14T21:24:05.177Z,4.40
2022-11-14T21:29:11.177Z,4.30
2022-11-14T21:34:18.108Z,4.30
2022-11-14T21:39:22.648Z,4.20
2022-11-14T21:44:25.858Z,4.10
2022-11-14T21:49:29.093Z,4.10
2022-11-14T21:54:33.681Z,4.10
2022-11-14T21:59:36.814Z,4.10
2022-11-14T22:04:40.246Z,4.00
2022-11-14T22:09:45.857Z,4.00
2022-11-14T22:14:49.063Z,4.00
2022-11-14T22:19:52.312Z,3.90
2022-11-14T22:24:56.851Z,4.00
2022-11-14T22:30:00.033Z,4.00
2022-11-14T22:35:03.275Z,4.00
2022-11-14T22:40:09.769Z,4.00
2022-11-14T22:45:12.963Z,4.00
2022-11-14T22:50:16.475Z,3.90
2022-11-14T22:55:21.084Z,3.80
2022-11-14T23:00:24.321Z,3.70
2022-11-14T23:05:27.542Z,3.60
2022-11-14T23:10:34.872Z,3.60
2022-11-14T23:15:38.430Z,3.50
2022-11-14T23:20:41.717Z,3.40
2022-11-14T23:25:46.284Z,3.50
2022-11-14T23:30:49.540Z,3.60
2022-11-14T23:35:52.900Z,3.80
2022-11-14T23:40:59.042Z,4.00
2022-11-14T23:46:02.196Z,4.10
2022-11-14T23:51:05.563Z,4.10
2022-11-14T23:56:13.782Z,4.00
